createdAt,value
2019-05-15T00:02:18.377Z,22.32
2019-05-15T00:05:19.667Z,21.85
2019-05-15T00:08:21.162Z,22.10
2019-05-15T00:11:22.391Z,22.45
2019-05-15T00:14:24.147Z,22.37
2019-05-15T00:17:25.465Z,22.75
2019-05-15T00:20:29.446Z,21.73
2019-05-15T00:23:30.439Z,22.58
2019-05-15T00:26:31.823Z,22.87
2019-05-15T00:29:33.147Z,22.87
2019-05-15T00:32:34.990Z,22.55
2019-05-15T00:35:38.978Z,22.00
2019-05-15T00:38:39.637Z,22.00
2019-05-15T00:41:50.841Z,22.45
2019-05-15T00:44:44.339Z,23.22
2019-05-15T00:47:45.615Z,22.02
2019-05-15T00:50:48.565Z,21.57
2019-05-15T00:53:49.921Z,22.62
2019-05-15T00:56:51.606Z,22.55
2019-05-15T00:59:52.875Z,21.57
2019-05-15T01:02:54.344Z,21.50
2019-05-15T01:05:55.596Z,20.75
2019-05-15T01:08:58.873Z,21.33
2019-05-15T01:12:00.352Z,21.70
2019-05-15T01:15:03.832Z,21.70
2019-05-15T01:18:05.102Z,21.05
2019-05-15T01:21:08.370Z,21.30
2019-05-15T01:24:09.627Z,21.97
2019-05-15T01:27:11.099Z,21.75
2019-05-15T01:30:12.406Z,21.10
2019-05-15T01:33:13.870Z,20.60
2019-05-15T01:36:15.123Z,21.87
2019-05-15T01:39:18.478Z,22.90
2019-05-15T01:42:19.872Z,22.73
2019-05-15T01:45:21.335Z,22.02
2019-05-15T01:48:22.600Z,22.42
2019-05-15T01:51:23.971Z,23.35
2019-05-15T01:54:25.276Z,22.58
2019-05-15T01:57:28.596Z,23.18
2019-05-15T02:00:29.812Z,23.20
2019-05-15T02:03:31.084Z,23.27
2019-05-15T02:06:32.339Z,23.07
2019-05-15T02:09:34.838Z,23.40
2019-05-15T02:12:38.762Z,23.10
2019-05-15T02:15:39.854Z,22.87
2019-05-15T02:18:41.239Z,23.80
2019-05-15T02:21:42.498Z,22.85
2019-05-15T02:24:44.000Z,23.32
2019-05-15T02:27:45.244Z,22.67
2019-05-15T02:30:50.036Z,23.25
2019-05-15T02:33:50.172Z,21.42
2019-05-15T02:36:51.647Z,22.80
2019-05-15T02:39:52.911Z,22.75
2019-05-15T02:42:54.372Z,23.30
2019-05-15T02:45:55.653Z,23.55
2019-05-15T02:48:59.184Z,24.10
2019-05-15T02:52:00.441Z,24.20
2019-05-15T02:55:03.423Z,23.57
2019-05-15T02:58:04.687Z,24.15
2019-05-15T03:01:09.040Z,23.57
2019-05-15T03:04:09.446Z,25.77
2019-05-15T03:07:10.675Z,23.80
2019-05-15T03:10:14.823Z,25.02
2019-05-15T03:13:18.787Z,25.30
2019-05-15T03:16:19.693Z,26.15
2019-05-15T03:19:21.103Z,26.33
2019-05-15T03:22:22.551Z,26.57
2019-05-15T03:25:23.904Z,27.30
2019-05-15T03:28:25.190Z,27.35
2019-05-15T03:31:43.676Z,26.25
2019-05-15T03:34:37.463Z,27.73
2019-05-15T03:37:34.119Z,27.35
2019-05-15T03:40:55.625Z,27.80
2019-05-15T03:43:59.606Z,27.95
2019-05-15T03:47:00.197Z,28.73
2019-05-15T03:50:02.984Z,26.70
2019-05-15T03:53:04.275Z,28.27
2019-05-15T03:56:05.547Z,28.38
2019-05-15T03:59:09.360Z,28.85
2019-05-15T04:02:10.345Z,28.70
2019-05-15T04:05:12.365Z,29.67
2019-05-15T04:08:13.971Z,30.30
2019-05-15T04:11:15.228Z,31.17
2019-05-15T04:14:19.350Z,29.85
2019-05-15T04:17:20.081Z,32.80
2019-05-15T04:20:21.667Z,30.60
2019-05-15T04:23:22.919Z,32.85
2019-05-15T04:26:28.406Z,32.78
2019-05-15T04:29:29.099Z,33.65
2019-05-15T04:32:30.595Z,32.98
2019-05-15T04:35:31.878Z,32.75
2019-05-15T04:38:33.331Z,32.70
2019-05-15T04:41:35.058Z,32.55
2019-05-15T04:44:39.245Z,30.75
2019-05-15T04:47:40.119Z,31.65
2019-05-15T04:50:41.813Z,31.70
2019-05-15T04:53:43.091Z,32.33
2019-05-15T04:56:44.739Z,31.68
2019-05-15T04:59:46.076Z,32.20
2019-05-15T05:02:49.621Z,31.05
2019-05-15T05:05:51.102Z,30.95
2019-05-15T05:08:52.787Z,30.95
2019-05-15T05:11:54.317Z,32.00
2019-05-15T05:14:55.575Z,32.60
2019-05-15T05:17:58.547Z,33.85
2019-05-15T05:21:00.000Z,33.92
2019-05-15T05:24:01.471Z,33.08
2019-05-15T05:27:02.827Z,32.03
2019-05-15T05:30:04.731Z,32.48
2019-05-15T05:33:08.351Z,31.95
2019-05-15T05:36:09.590Z,31.82
2019-05-15T05:39:13.608Z,32.13
2019-05-15T05:42:14.068Z,31.97
2019-05-15T05:45:18.052Z,34.15
2019-05-15T05:48:19.278Z,35.75
2019-05-15T05:51:20.710Z,32.73
2019-05-15T05:54:23.019Z,32.45
2019-05-15T05:57:24.310Z,32.38
2019-05-15T06:00:34.847Z,32.50
2019-05-15T06:06:38.411Z,32.65
2019-05-15T06:09:39.952Z,31.80
2019-05-15T06:12:41.428Z,29.85
2019-05-15T06:15:42.700Z,30.88
2019-05-15T06:18:44.190Z,29.67
2019-05-15T06:21:54.693Z,27.73
2019-05-15T06:24:49.002Z,25.25
2019-05-15T06:27:51.096Z,24.67
2019-05-15T06:30:53.751Z,23.98
2019-05-15T06:33:55.121Z,23.25
2019-05-15T06:36:58.746Z,23.35
2019-05-15T06:39:59.774Z,20.97
2019-05-15T06:43:01.206Z,21.27
2019-05-15T06:46:02.928Z,19.17
2019-05-15T06:49:04.646Z,19.37
2019-05-15T06:52:05.950Z,18.00
2019-05-15T06:55:09.067Z,16.12
2019-05-15T06:58:10.512Z,16.45
2019-05-15T07:01:12.638Z,15.68
2019-05-15T07:04:13.967Z,14.87
2019-05-15T07:07:18.043Z,15.58
2019-05-15T07:10:18.967Z,13.98
2019-05-15T07:13:20.606Z,13.48
2019-05-15T07:16:22.005Z,14.35
2019-05-15T07:19:23.659Z,13.90
2019-05-15T07:22:25.788Z,14.15
2019-05-15T07:29:18.844Z,12.82
2019-05-15T07:36:00.722Z,10.35
2019-05-15T07:39:08.376Z,10.08
2019-05-15T07:42:13.254Z,9.68
2019-05-15T07:45:19.822Z,9.18
2019-05-15T07:48:31.380Z,9.50
2019-05-15T07:51:37.969Z,9.00
2019-05-15T07:54:38.995Z,8.00
2019-05-15T07:57:41.351Z,7.42
2019-05-15T08:00:43.134Z,7.90
2019-05-15T08:03:56.536Z,7.45
2019-05-15T08:06:54.270Z,7.65
2019-05-15T08:09:58.849Z,8.08
2019-05-15T08:12:59.234Z,8.30
2019-05-15T08:16:00.659Z,7.45
2019-05-15T08:19:02.447Z,8.58
2019-05-15T08:22:04.237Z,8.93
2019-05-15T08:25:07.610Z,8.23
2019-05-15T08:28:09.220Z,8.60
2019-05-15T08:31:11.490Z,7.70
2019-05-15T08:34:16.311Z,8.93
2019-05-15T08:37:18.126Z,9.13
2019-05-15T08:40:20.179Z,8.70
2019-05-15T08:43:22.440Z,9.83
2019-05-15T08:46:23.938Z,9.38
2019-05-15T08:49:25.230Z,9.00
2019-05-15T08:52:28.314Z,9.03
2019-05-15T08:55:29.793Z,11.88
2019-05-15T08:58:31.395Z,11.05
2019-05-15T09:01:32.637Z,10.75
2019-05-15T09:04:35.176Z,12.35
2019-05-15T09:07:38.327Z,11.50
2019-05-15T09:10:41.339Z,9.85
2019-05-15T09:13:44.313Z,9.98
2019-05-15T09:16:48.775Z,11.15
2019-05-15T09:19:49.662Z,8.43
2019-05-15T09:22:51.218Z,6.97
2019-05-15T09:25:52.476Z,7.22
2019-05-15T09:28:53.948Z,6.62
2019-05-15T09:31:55.342Z,6.83
2019-05-15T09:34:59.332Z,7.03
2019-05-15T09:38:00.754Z,6.05
2019-05-15T09:41:02.032Z,6.60
2019-05-15T09:44:03.543Z,6.85
2019-05-15T09:47:04.836Z,6.65
2019-05-15T09:50:09.690Z,5.70
2019-05-15T09:53:11.069Z,6.33
2019-05-15T09:56:12.553Z,6.80
2019-05-15T09:59:13.843Z,6.08
2019-05-15T10:02:15.344Z,5.85
2019-05-15T10:05:18.535Z,6.70
2019-05-15T10:08:21.225Z,6.28
2019-05-15T10:11:22.895Z,5.53
2019-05-15T10:14:25.036Z,5.87
2019-05-15T10:17:33.007Z,5.50
2019-05-15T10:20:34.440Z,5.47
2019-05-15T10:23:36.091Z,6.75
2019-05-15T10:26:39.346Z,7.47
2019-05-15T10:29:40.644Z,7.12
2019-05-15T10:32:42.487Z,8.23
2019-05-15T10:35:43.927Z,7.00
2019-05-15T10:38:45.277Z,7.22
2019-05-15T10:41:48.217Z,4.80
2019-05-15T10:44:50.011Z,5.35
2019-05-15T10:47:51.391Z,6.33
2019-05-15T10:50:52.750Z,8.13
2019-05-15T10:53:54.197Z,7.12
2019-05-15T10:56:55.445Z,4.22
2019-05-15T10:59:58.430Z,4.25
2019-05-15T11:02:59.771Z,4.00
2019-05-15T11:06:01.166Z,3.83
2019-05-15T11:09:04.640Z,3.60
2019-05-15T11:12:08.599Z,3.45
2019-05-15T11:15:11.407Z,2.80
2019-05-15T11:18:12.730Z,3.33
2019-05-15T11:21:14.142Z,2.90
2019-05-15T11:24:15.396Z,2.40
2019-05-15T11:27:18.993Z,2.80
2019-05-15T11:30:27.524Z,2.65
2019-05-15T11:33:33.685Z,2.58
2019-05-15T11:36:34.921Z,2.27
2019-05-15T11:39:44.606Z,3.92
2019-05-15T11:42:39.584Z,3.75
2019-05-15T11:45:41.801Z,2.75
2019-05-15T11:48:43.066Z,2.65
2019-05-15T11:51:44.526Z,2.75
2019-05-15T11:54:45.806Z,3.05
2019-05-15T11:57:50.454Z,2.85
2019-05-15T12:00:50.537Z,3.40
2019-05-15T12:03:54.014Z,3.40
2019-05-15T12:06:59.616Z,3.45
2019-05-15T12:09:58.606Z,3.70
2019-05-15T12:12:59.874Z,4.62
2019-05-15T12:16:01.139Z,4.05
2019-05-15T12:19:09.144Z,3.87
2019-05-15T12:22:05.675Z,4.25
2019-05-15T12:25:09.742Z,4.45
2019-05-15T12:28:11.136Z,4.65
2019-05-15T12:31:12.425Z,4.70
2019-05-15T12:34:14.543Z,5.28
2019-05-15T12:37:15.775Z,5.10
2019-05-15T13:01:41.092Z,7.72
2019-05-15T13:04:42.576Z,8.18
2019-05-15T13:07:43.818Z,8.73
2019-05-15T13:10:45.113Z,11.12
2019-05-15T13:13:48.367Z,9.48
2019-05-15T13:16:49.467Z,8.10
2019-05-15T13:19:51.015Z,7.85
2019-05-15T13:22:53.035Z,7.17
2019-05-15T13:25:54.304Z,6.70
2019-05-15T13:28:58.098Z,7.37
2019-05-15T13:31:59.255Z,6.85
2019-05-15T13:35:00.673Z,7.15
2019-05-15T13:38:02.363Z,7.53
2019-05-15T13:41:06.540Z,7.83
2019-05-15T13:44:09.037Z,8.03
2019-05-15T13:47:10.759Z,7.97
2019-05-15T13:50:11.990Z,7.35
2019-05-15T13:53:15.333Z,7.85
2019-05-15T13:56:18.274Z,7.80
2019-05-15T13:59:20.287Z,8.60
2019-05-15T14:02:22.072Z,10.05
2019-05-15T14:05:24.305Z,10.28
2019-05-15T14:08:28.545Z,8.60
2019-05-15T14:11:30.969Z,8.80
2019-05-15T14:14:33.331Z,8.43
2019-05-15T14:17:35.145Z,7.85
2019-05-15T14:20:38.725Z,7.70
2019-05-15T14:23:40.372Z,7.97
2019-05-15T14:26:41.888Z,7.50
2019-05-15T14:29:43.542Z,7.30
2019-05-15T14:32:44.824Z,7.97
2019-05-15T14:35:48.332Z,8.03
2019-05-15T14:38:51.490Z,7.78
2019-05-15T14:41:53.493Z,7.80
2019-05-15T14:44:55.074Z,7.62
2019-05-15T14:47:58.415Z,7.25
2019-05-15T14:51:02.520Z,7.67
2019-05-15T14:54:08.923Z,7.05
2019-05-15T14:57:14.976Z,7.83
2019-05-15T15:00:20.618Z,7.25
2019-05-15T15:03:23.858Z,7.72
2019-05-15T15:06:26.851Z,7.78
2019-05-15T15:09:33.041Z,8.38
2019-05-15T15:12:39.745Z,9.33
2019-05-15T15:15:43.315Z,7.50
2019-05-15T15:18:48.424Z,7.45
2019-05-15T15:21:58.009Z,7.75
2019-05-15T15:24:59.871Z,9.30
2019-05-15T15:28:02.418Z,9.38
2019-05-15T15:31:06.383Z,9.23
2019-05-15T15:34:10.276Z,9.68
2019-05-15T15:37:13.078Z,9.03
2019-05-15T15:40:15.127Z,9.45
2019-05-15T15:43:17.355Z,9.28
2019-05-15T15:46:20.055Z,9.28
2019-05-15T15:49:22.046Z,8.80
2019-05-15T15:52:28.985Z,9.55
2019-05-15T15:55:30.311Z,9.38
2019-05-15T15:58:33.027Z,12.05
2019-05-15T16:01:36.114Z,12.07
2019-05-15T16:04:39.377Z,12.65
2019-05-15T16:07:43.373Z,13.53
2019-05-15T16:10:44.253Z,13.15
2019-05-15T16:13:46.444Z,11.85
2019-05-15T16:16:48.801Z,13.48
2019-05-15T16:19:50.285Z,14.00
2019-05-15T16:22:52.199Z,13.20
2019-05-15T16:25:53.704Z,15.48
2019-05-15T16:32:11.378Z,16.02
2019-05-15T16:35:20.032Z,17.05
2019-05-15T16:38:21.495Z,18.05
2019-05-15T16:41:23.573Z,19.42
2019-05-15T16:44:25.232Z,21.48
2019-05-15T16:47:28.007Z,23.20
2019-05-15T16:50:30.610Z,22.10
2019-05-15T16:53:31.947Z,21.25
2019-05-15T16:56:37.354Z,20.23
2019-05-15T16:59:39.939Z,22.93
2019-05-15T17:02:42.696Z,24.63
2019-05-15T17:05:44.210Z,24.45
2019-05-15T17:08:45.674Z,25.88
2019-05-15T17:11:49.175Z,31.02
2019-05-15T17:14:51.653Z,33.15
2019-05-15T17:17:53.079Z,33.10
2019-05-15T17:20:54.718Z,35.58
2019-05-15T17:23:58.301Z,29.70
2019-05-15T17:27:00.505Z,28.20
2019-05-15T17:30:02.834Z,27.98
2019-05-15T17:33:04.931Z,30.10
2019-05-15T17:36:06.420Z,29.02
2019-05-15T17:39:09.000Z,31.35
2019-05-15T17:42:10.604Z,33.73
2019-05-15T17:45:12.304Z,34.43
2019-05-15T17:48:19.642Z,33.58
2019-05-15T17:51:21.586Z,30.65
2019-05-15T17:54:23.710Z,30.52
2019-05-15T17:57:28.468Z,31.37
2019-05-15T18:00:30.365Z,29.85
2019-05-15T18:03:32.272Z,31.85
2019-05-15T18:06:39.900Z,32.17
2019-05-15T18:09:51.557Z,31.95
2019-05-15T18:12:44.866Z,32.75
2019-05-15T18:15:46.109Z,32.90
2019-05-15T18:18:47.980Z,31.68
2019-05-15T18:21:50.520Z,31.85
2019-05-15T18:24:52.795Z,32.13
2019-05-15T18:27:58.760Z,33.90
2019-05-15T18:30:58.996Z,36.10
2019-05-15T18:34:00.907Z,37.58
2019-05-15T18:37:04.399Z,37.70
2019-05-15T18:40:11.201Z,37.08
2019-05-15T18:43:13.686Z,36.98
2019-05-15T18:46:18.185Z,38.13
2019-05-15T18:49:21.303Z,36.75
2019-05-15T18:52:23.810Z,37.95
2019-05-15T18:55:27.557Z,38.33
2019-05-15T18:58:29.793Z,37.10
2019-05-15T19:01:31.949Z,37.10
2019-05-15T19:04:33.833Z,37.03
2019-05-15T19:07:38.308Z,37.53
2019-05-15T19:10:39.474Z,38.05
2019-05-15T19:13:40.962Z,35.68
2019-05-15T19:16:42.378Z,35.25
2019-05-15T19:19:45.034Z,37.05
2019-05-15T19:22:48.486Z,37.63
2019-05-15T19:25:50.032Z,39.35
2019-05-15T19:28:52.715Z,37.67
2019-05-15T19:31:54.152Z,36.65
2019-05-15T19:34:55.854Z,40.52
2019-05-15T19:37:58.518Z,43.45
2019-05-15T19:41:03.065Z,39.60
2019-05-15T19:44:04.690Z,39.18
2019-05-15T19:47:07.955Z,36.38
2019-05-15T19:50:09.832Z,36.10
2019-05-15T19:53:13.296Z,36.70
2019-05-15T19:56:14.527Z,33.95
2019-05-15T19:59:21.833Z,34.15
2019-05-15T20:02:19.942Z,34.20
2019-05-15T20:05:22.369Z,36.75
2019-05-15T20:08:23.994Z,38.98
2019-05-15T20:11:27.858Z,36.28
2019-05-15T20:14:29.450Z,37.98
2019-05-15T20:17:30.975Z,37.03
2019-05-15T20:20:32.643Z,37.30
2019-05-15T20:23:34.252Z,38.53
2019-05-15T20:26:38.054Z,39.20
2019-05-15T20:29:39.211Z,38.73
2019-05-15T20:32:41.684Z,39.50
2019-05-15T20:36:02.829Z,37.53
2019-05-15T20:39:04.885Z,37.35
2019-05-15T20:42:09.162Z,40.00
2019-05-15T20:45:12.537Z,39.73
2019-05-15T20:48:14.915Z,40.92
2019-05-15T20:51:18.525Z,42.30
2019-05-15T20:54:20.194Z,43.30
2019-05-15T20:57:21.810Z,42.90
2019-05-15T21:00:23.472Z,38.92
2019-05-15T21:03:26.283Z,37.17
2019-05-15T21:06:28.415Z,41.48
2019-05-15T21:09:30.721Z,38.10
2019-05-15T21:12:33.306Z,40.63
2019-05-15T21:15:35.351Z,37.10
2019-05-15T21:18:38.028Z,39.75
2019-05-15T21:21:39.417Z,36.90
2019-05-15T21:24:40.658Z,38.85
2019-05-15T21:27:43.724Z,44.70
2019-05-15T21:30:45.472Z,44.15
2019-05-15T21:33:48.121Z,37.65
2019-05-15T21:36:52.102Z,40.80
2019-05-15T21:39:53.479Z,45.88
2019-05-15T21:42:54.797Z,48.28
2019-05-15T21:45:56.262Z,49.50
2019-05-15T21:48:57.689Z,51.88
2019-05-15T21:52:00.924Z,45.58
2019-05-15T21:55:03.505Z,46.98
2019-05-15T21:58:04.866Z,48.00
2019-05-15T22:01:08.092Z,44.27
2019-05-15T22:07:29.689Z,47.38
2019-05-15T22:10:32.169Z,46.68
2019-05-15T22:13:34.014Z,48.58
2019-05-15T22:16:36.792Z,45.05
2019-05-15T22:19:38.718Z,46.20
2019-05-15T22:22:40.514Z,45.78
2019-05-15T22:25:43.926Z,45.38
2019-05-15T22:28:45.343Z,43.58
2019-05-15T22:31:48.681Z,42.70
2019-05-15T22:35:05.657Z,40.35
2019-05-15T22:37:54.059Z,40.10
2019-05-15T22:40:56.295Z,41.13
2019-05-15T22:43:57.745Z,42.00
2019-05-15T22:46:59.195Z,39.88
2019-05-15T22:50:00.708Z,40.67
2019-05-15T22:53:02.353Z,40.25
2019-05-15T22:56:03.770Z,41.35
2019-05-15T22:59:05.003Z,40.40
2019-05-15T23:02:09.162Z,37.93
2019-05-15T23:05:23.778Z,37.65
2019-05-15T23:08:13.188Z,36.38
2019-05-15T23:11:14.480Z,37.08
2019-05-15T23:14:17.997Z,39.00
2019-05-15T23:17:19.214Z,36.73
2019-05-15T23:20:20.653Z,37.78
2019-05-15T23:23:22.059Z,36.70
2019-05-15T23:26:23.593Z,35.45
2019-05-15T23:29:25.405Z,36.20
2019-05-15T23:32:28.905Z,36.45
2019-05-15T23:35:37.957Z,36.33
2019-05-15T23:38:33.653Z,38.10
2019-05-15T23:41:34.887Z,38.42
2019-05-15T23:44:38.207Z,37.45
2019-05-15T23:47:39.493Z,35.75
2019-05-15T23:50:41.382Z,34.73
2019-05-15T23:53:42.605Z,36.38
2019-05-15T23:56:43.969Z,34.70
2019-05-15T23:59:47.622Z,34.73
